Time,TemperatureF,DewpointF,PressureIn,WindDirection,WindDirectionDegrees,WindSpeedMPH,WindSpeedGustMPH,Humidity,HourlyPrecipIn,Conditions,Clouds,dailyrainin,SoftwareType,DateUTC
2013-03-05 00:02:00,53.0,39.0,30.06,North,-999,0.0,0.0,59,0.00,,,-99.99,,2013-03-05 08:02:00,
2013-03-05 01:01:00,52.0,44.0,30.06,North,-999,0.0,0.0,75,0.00,,,-99.99,,2013-03-05 09:01:00,
2013-03-05 01:11:00,52.0,44.0,30.06,North,-999,0.0,0.0,75,0.00,,,-99.99,,2013-03-05 09:11:00,
2013-03-05 01:21:00,52.0,44.0,30.06,North,-999,0.0,0.0,75,0.00,,,-99.99,,2013-03-05 09:21:00,
2013-03-05 01:31:00,52.0,44.0,30.06,North,-999,0.0,0.0,74,0.00,,,-99.99,,2013-03-05 09:31:00,
2013-03-05 02:01:00,52.0,44.0,30.04,North,-999,0.0,0.0,74,0.00,,,-99.99,,2013-03-05 10:01:00,
2013-03-05 02:32:00,51.0,44.0,30.04,North,-999,0.0,0.0,78,0.00,,,-99.99,,2013-03-05 10:32:00,
2013-03-05 03:01:00,49.0,43.0,30.03,North,0,0.0,2.0,80,0.00,,,-99.99,,2013-03-05 11:01:00,
2013-03-05 03:32:00,47.0,43.0,30.04,North,-999,0.0,0.0,86,0.00,,,-99.99,,2013-03-05 11:32:00,
2013-03-05 04:32:00,46.0,43.0,30.02,North,0,0.0,1.0,90,0.00,,,-99.99,,2013-03-05 12:32:00,
2013-03-05 05:01:00,46.0,43.0,30.02,North,0,0.0,1.0,89,0.00,,,-99.99,,2013-03-05 13:01:00,
2013-03-05 05:31:00,47.0,44.0,30.04,North,0,0.0,1.0,88,0.00,,,-99.99,,2013-03-05 13:31:00,
2013-03-05 06:02:00,47.0,43.0,30.04,North,-999,0.0,0.0,87,0.00,,,-99.99,,2013-03-05 14:02:00,
2013-03-05 06:31:00,46.0,42.0,30.04,North,-999,0.0,0.0,87,0.00,,,-99.99,,2013-03-05 14:31:00,
2013-03-05 07:01:00,46.0,43.0,30.05,North,-999,0.0,0.0,89,0.00,,,-99.99,,2013-03-05 15:01:00,
2013-03-05 07:32:00,47.0,44.0,30.05,North,0,0.0,1.0,90,0.00,,,-99.99,,2013-03-05 15:32:00,
2013-03-05 08:01:00,49.0,45.0,30.06,North,-999,0.0,0.0,86,0.00,,,-99.99,,2013-03-05 16:01:00,
2013-03-05 08:32:00,51.0,45.0,30.06,North,0,0.0,2.0,79,0.00,,,-99.99,,2013-03-05 16:32:00,
2013-03-05 09:32:00,53.0,46.0,30.08,North,-999,0.0,0.0,78,0.00,,,-99.99,,2013-03-05 17:32:00,
2013-03-05 09:42:00,53.0,46.0,30.08,North,-999,0.0,0.0,78,0.00,,,-99.99,,2013-03-05 17:42:00,
2013-03-05 09:52:00,53.0,46.0,30.08,North,-999,0.0,0.0,78,0.00,,,-99.99,,2013-03-05 17:52:00,
2013-03-05 10:01:00,51.0,46.0,30.08,North,-999,0.0,0.0,84,0.00,,,-99.99,,2013-03-05 18:01:00,
2013-03-05 10:11:00,51.0,46.0,30.08,North,-999,0.0,0.0,84,0.00,,,-99.99,,2013-03-05 18:11:00,
2013-03-05 10:21:00,51.0,46.0,30.08,North,-999,0.0,0.0,84,0.00,,,-99.99,,2013-03-05 18:21:00,
2013-03-05 10:32:00,51.0,47.0,30.08,North,-999,0.0,0.0,85,0.00,,,-99.99,,2013-03-05 18:32:00,
2013-03-05 10:42:00,51.0,47.0,30.08,North,-999,0.0,0.0,85,0.00,,,-99.99,,2013-03-05 18:42:00,
2013-03-05 10:53:00,51.0,47.0,30.08,North,-999,0.0,0.0,85,0.00,,,-99.99,,2013-03-05 18:53:00,
2013-03-05 11:01:00,50.0,45.0,30.07,North,0,0.0,1.0,84,0.00,,,-99.99,,2013-03-05 19:01:00,
2013-03-05 11:11:00,50.0,45.0,30.07,North,0,0.0,1.0,84,0.00,,,-99.99,,2013-03-05 19:11:00,
2013-03-05 11:21:00,50.0,45.0,30.07,North,0,0.0,1.0,84,0.00,,,-99.99,,2013-03-05 19:21:00,
2013-03-05 11:31:00,51.0,46.0,30.07,North,0,0.0,2.0,84,0.00,,,-99.99,,2013-03-05 19:31:00,
2013-03-05 11:42:00,51.0,46.0,30.07,North,0,0.0,2.0,84,0.00,,,-99.99,,2013-03-05 19:42:00,
2013-03-05 11:52:00,51.0,46.0,30.07,North,0,0.0,2.0,84,0.00,,,-99.99,,2013-03-05 19:52:00,
2013-03-05 12:01:00,54.0,48.0,30.06,East,90,1.0,1.0,80,0.00,,,-99.99,,2013-03-05 20:01:00,
2013-03-05 12:11:00,54.0,49.0,30.05,North,0,0.0,3.0,82,0.00,,,-99.99,,2013-03-05 20:11:00,
2013-03-05 12:21:00,54.0,49.0,30.05,North,0,0.0,3.0,82,0.00,,,-99.99,,2013-03-05 20:21:00,
2013-03-05 12:32:00,56.0,49.0,30.04,North,0,0.0,1.0,76,0.00,,,-99.99,,2013-03-05 20:32:00,
2013-03-05 12:41:00,56.0,48.0,30.04,North,0,0.0,1.0,75,0.00,,,-99.99,,2013-03-05 20:41:00,
2013-03-05 12:52:00,56.0,48.0,30.04,North,0,0.0,1.0,75,0.00,,,-99.99,,2013-03-05 20:52:00,
2013-03-05 13:01:00,56.0,48.0,30.04,North,0,0.0,1.0,75,0.00,,,-99.99,,2013-03-05 21:01:00,
2013-03-05 13:11:00,56.0,48.0,30.04,North,0,0.0,1.0,75,0.00,,,-99.99,,2013-03-05 21:11:00,
2013-03-05 13:32:00,54.0,47.0,30.03,North,0,0.0,4.0,77,0.00,,,-99.99,,2013-03-05 21:32:00,
2013-03-05 13:42:00,54.0,47.0,30.03,North,0,0.0,4.0,77,0.00,,,-99.99,,2013-03-05 21:42:00,
2013-03-05 13:52:00,54.0,47.0,30.03,North,0,0.0,4.0,77,0.00,,,-99.99,,2013-03-05 21:52:00,
2013-03-05 14:01:00,52.0,47.0,30.02,WSW,240,4.0,6.0,83,0.00,,,-99.99,,2013-03-05 22:01:00,
2013-03-05 14:11:00,52.0,47.0,30.02,WSW,240,4.0,6.0,83,0.00,,,-99.99,,2013-03-05 22:11:00,
2013-03-05 14:21:00,52.0,47.0,30.02,WSW,240,4.0,6.0,83,0.00,,,-99.99,,2013-03-05 22:21:00,
2013-03-05 14:32:00,49.0,46.0,30.01,SW,230,2.0,3.0,88,0.00,,,-99.99,,2013-03-05 22:32:00,
2013-03-05 14:42:00,49.0,46.0,30.01,SW,230,2.0,3.0,88,0.00,,,-99.99,,2013-03-05 22:42:00,
2013-03-05 14:52:00,49.0,46.0,30.01,SW,230,2.0,3.0,88,0.00,,,-99.99,,2013-03-05 22:52:00,
2013-03-05 15:01:00,50.0,47.0,30.01,North,-999,0.0,0.0,88,0.00,,,-99.99,,2013-03-05 23:01:00,
2013-03-05 15:11:00,50.0,47.0,30.01,North,-999,0.0,0.0,88,0.00,,,-99.99,,2013-03-05 23:11:00,
2013-03-05 15:21:00,50.0,47.0,30.01,North,-999,0.0,0.0,88,0.00,,,-99.99,,2013-03-05 23:21:00,
2013-03-05 15:32:00,49.0,46.0,30.01,SW,230,2.0,4.0,89,0.00,,,-99.99,,2013-03-05 23:32:00,
2013-03-05 15:42:00,50.0,47.0,30.01,WSW,240,1.0,4.0,88,0.00,,,-99.99,,2013-03-05 23:42:00,
2013-03-05 15:52:00,50.0,47.0,30.01,WSW,240,1.0,4.0,88,0.00,,,-99.99,,2013-03-05 23:52:00,
2013-03-05 16:01:00,50.0,46.0,30.01,WSW,250,2.0,4.0,86,0.00,,,-99.99,,2013-03-06 00:01:00,
2013-03-05 16:11:00,50.0,46.0,30.01,WSW,250,2.0,4.0,86,0.00,,,-99.99,,2013-03-06 00:11:00,
2013-03-05 16:21:00,50.0,46.0,30.01,WSW,250,2.0,4.0,86,0.00,,,-99.99,,2013-03-06 00:21:00,
2013-03-05 16:31:00,50.0,46.0,30.01,North,0,0.0,3.0,86,0.00,,,-99.99,,2013-03-06 00:31:00,
2013-03-05 16:32:00,50.0,46.0,30.01,West,280,2.0,3.0,86,0.00,,,-99.99,,2013-03-06 00:32:00,
2013-03-05 16:42:00,50.0,46.0,30.01,West,280,2.0,3.0,86,0.00,,,-99.99,,2013-03-06 00:42:00,
2013-03-05 16:52:00,50.0,46.0,30.01,West,280,2.0,3.0,86,0.00,,,-99.99,,2013-03-06 00:52:00,
2013-03-05 17:01:00,50.0,46.0,30.01,North,0,0.0,3.0,86,0.00,,,-99.99,,2013-03-06 01:01:00,
2013-03-05 17:11:00,50.0,46.0,30.01,North,0,0.0,3.0,86,0.00,,,-99.99,,2013-03-06 01:11:00,
2013-03-05 17:21:00,50.0,46.0,30.01,North,0,0.0,3.0,86,0.00,,,-99.99,,2013-03-06 01:21:00,
2013-03-05 17:31:00,51.0,46.0,30.01,North,-999,0.0,0.0,82,0.00,,,-99.99,,2013-03-06 01:31:00,
2013-03-05 18:01:00,51.0,46.0,30.01,North,-999,0.0,0.0,82,0.00,,,-99.99,,2013-03-06 02:01:00,
2013-03-05 18:11:00,51.0,46.0,30.01,North,-999,0.0,0.0,82,0.00,,,-99.99,,2013-03-06 02:11:00,
2013-03-05 18:21:00,51.0,46.0,30.01,North,-999,0.0,0.0,82,0.00,,,-99.99,,2013-03-06 02:21:00,
2013-03-05 19:01:00,47.0,44.0,30.05,North,-999,0.0,0.0,90,0.00,,,-99.99,,2013-03-06 03:01:00,
2013-03-05 19:11:00,47.0,44.0,30.05,North,-999,0.0,0.0,90,0.00,,,-99.99,,2013-03-06 03:11:00,
2013-03-05 19:21:00,47.0,44.0,30.05,North,-999,0.0,0.0,90,0.00,,,-99.99,,2013-03-06 03:21:00,
2013-03-05 19:31:00,46.0,44.0,30.07,North,-999,0.0,0.0,91,0.00,,,-99.99,,2013-03-06 03:31:00,
2013-03-05 19:42:00,46.0,44.0,30.07,North,-999,0.0,0.0,91,0.00,,,-99.99,,2013-03-06 03:42:00,
2013-03-05 19:52:00,46.0,44.0,30.07,North,-999,0.0,0.0,91,0.00,,,-99.99,,2013-03-06 03:52:00,
2013-03-05 20:01:00,45.0,43.0,30.07,North,-999,0.0,0.0,92,0.00,,,-99.99,,2013-03-06 04:01:00,
2013-03-05 20:11:00,45.0,43.0,30.07,North,-999,0.0,0.0,92,0.00,,,-99.99,,2013-03-06 04:11:00,
2013-03-05 20:21:00,45.0,43.0,30.07,North,-999,0.0,0.0,92,0.00,,,-99.99,,2013-03-06 04:21:00,
2013-03-05 20:32:00,45.0,43.0,30.08,North,-999,0.0,0.0,92,0.00,,,-99.99,,2013-03-06 04:32:00,
2013-03-05 20:42:00,45.0,43.0,30.08,North,-999,0.0,0.0,92,0.00,,,-99.99,,2013-03-06 04:42:00,
2013-03-05 20:52:00,45.0,43.0,30.08,North,-999,0.0,0.0,92,0.00,,,-99.99,,2013-03-06 04:52:00,
2013-03-05 21:01:00,45.0,43.0,30.08,North,-999,0.0,0.0,93,0.00,,,-99.99,,2013-03-06 05:01:00,
2013-03-05 21:11:00,45.0,43.0,30.08,North,-999,0.0,0.0,93,0.00,,,-99.99,,2013-03-06 05:11:00,
2013-03-05 21:22:00,45.0,43.0,30.08,North,-999,0.0,0.0,93,0.00,,,-99.99,,2013-03-06 05:22:00,
2013-03-05 22:02:00,45.0,43.0,30.10,North,-999,0.0,0.0,94,0.00,,,-99.99,,2013-03-06 06:02:00,
2013-03-05 22:11:00,44.0,42.0,30.09,North,0,0.0,1.0,94,0.00,,,-99.99,,2013-03-06 06:11:00,
2013-03-05 22:22:00,44.0,42.0,30.09,North,0,0.0,1.0,94,0.00,,,-99.99,,2013-03-06 06:22:00,
2013-03-05 22:31:00,44.0,43.0,30.10,North,0,0.0,1.0,95,0.00,,,-99.99,,2013-03-06 06:31:00,
2013-03-05 22:41:00,44.0,43.0,30.10,North,0,0.0,1.0,95,0.00,,,-99.99,,2013-03-06 06:41:00,
2013-03-05 22:52:00,44.0,43.0,30.10,North,0,0.0,1.0,95,0.00,,,-99.99,,2013-03-06 06:52:00,
2013-03-05 23:01:00,44.0,43.0,30.10,North,0,0.0,1.0,95,0.00,,,-99.99,,2013-03-06 07:01:00,
2013-03-05 23:31:00,42.0,41.0,30.12,North,-999,0.0,0.0,96,0.01,,,-99.99,,2013-03-06 07:31:00,
2013-03-05 23:32:00,42.0,41.0,30.13,WSW,240,1.0,2.0,96,0.02,,,-99.99,,2013-03-06 07:32:00,
2013-03-05 23:42:00,42.0,41.0,30.13,WSW,240,1.0,2.0,96,0.02,,,-99.99,,2013-03-06 07:42:00,
2013-03-05 23:52:00,42.0,41.0,30.13,WSW,240,1.0,2.0,96,0.02,,,-99.99,,2013-03-06 07:52:00,